Seafrance Rodin — FOBQ — position and weather

sailwx.info

Track history (hours):
 
Tides and Currents Weather Stations Pressure Air Temp Water Temp Dewpoint Dewpoint Depression Visibility Wind Speed Wind Dir Waves Ship Positions

Seafrance Rodin

Operator: SeaFrance

Last reported at 2017-Apr-30 14:30 UTC. Time now 2017-Apr-30 14:52 UTC.
Position N 51°04' E 001°27'.

Length 185 m; draft 6 m.

MMSI: 227022800.

Date/timePositionNaut miles runAvg speedWind from/ knotsBaromVisibWave heightAir tempDewpointWater temp
2017-Apr-30 14:30N 51°04' E 001°27'5 5.1
2017-Apr-30 13:30N 51°07' E 001°20'3 5.3
2017-Apr-30 13:00N 51°07' E 001°24'1121.3
2017-Apr-30 12:30N 51°01' E 001°38'917.1
2017-Apr-30 12:01N 50°58' E 001°51'0 0.8
2017-Apr-30 11:30N 50°58' E 001°52'0 0.0
2017-Apr-30 11:01N 50°58' E 001°52'0 0.0
2017-Apr-30 10:30N 50°58' E 001°52'0 0.0
2017-Apr-30 10:00N 50°58' E 001°52'0 0.0
2017-Apr-30 09:30N 50°58' E 001°52'0 0.0
2017-Apr-30 09:01N 50°58' E 001°52'0 0.0
2017-Apr-30 08:30N 50°58' E 001°52'0 0.0
2017-Apr-30 08:00N 50°58' E 001°52'0 0.0
2017-Apr-30 07:29N 50°58' E 001°52'0 0.0
2017-Apr-30 07:01N 50°58' E 001°52'0 0.0
2017-Apr-30 06:30N 50°58' E 001°52'0 0.0
2017-Apr-30 06:01N 50°58' E 001°52'0 0.0
2017-Apr-30 05:31N 50°58' E 001°52'0 0.0
2017-Apr-30 05:00N 50°58' E 001°52'0 0.0
2017-Apr-30 04:30N 50°58' E 001°52'0 0.0
2017-Apr-30 04:00N 50°58' E 001°52'0 0.0
2017-Apr-30 03:30N 50°58' E 001°52'0 0.0
2017-Apr-30 03:00N 50°58' E 001°52'0 0.0
2017-Apr-30 02:31N 50°58' E 001°52'0 0.0
2017-Apr-30 02:00N 50°58' E 001°52'0 0.0
2017-Apr-30 01:31N 50°58' E 001°52'2 3.7
2017-Apr-30 01:01N 50°58' E 001°49'1019.5
2017-Apr-30 00:31N 50°60' E 001°33'918.2
2017-Apr-30 00:01N 51°06' E 001°23'2 4.6
2017-Apr-29 23:30N 51°07' E 001°20'0 0.0
2017-Apr-29 23:00N 51°07' E 001°20'3 7.1
2017-Apr-29 22:30N 51°06' E 001°25'918.1
2017-Apr-29 22:00N 51°01' E 001°37'917.6
2017-Apr-29 21:30N 50°58' E 001°50'1 1.3
2017-Apr-29 21:00N 50°58' E 001°51'0 0.0
2017-Apr-29 20:30N 50°58' E 001°51'3 6.5
2017-Apr-29 20:00N 50°58' E 001°46'816.1
2017-Apr-29 19:30N 51°01' E 001°34'917.9
2017-Apr-29 19:00N 51°06' E 001°23'2 4.0
2017-Apr-29 18:30N 51°07' E 001°20'0 0.0
2017-Apr-29 18:00N 51°07' E 001°20'612.3
2017-Apr-29 17:31N 51°06' E 001°30'918.6
2017-Apr-29 17:01N 51°00' E 001°41'713.0
2017-Apr-29 16:30N 50°58' E 001°51'0 0.2
2017-Apr-29 16:00N 50°58' E 001°51'2 4.5
2017-Apr-29 15:30N 50°58' E 001°48'816.6
2017-Apr-29 15:00N 51°00' E 001°35'1211.6
2017-Apr-29 13:59N 51°07' E 001°20'0 0.0
2017-Apr-29 13:28N 51°07' E 001°20'511.7
2017-Apr-29 13:00N 51°05' E 001°28'1121.6
2017-Apr-29 12:30N 50°59' E 001°42'611.6
2017-Apr-29 12:00N 50°58' E 001°51'0 0.0
2017-Apr-29 11:30N 50°58' E 001°51'1 1.7
2017-Apr-29 11:01N 50°58' E 001°50'816.9
2017-Apr-29 10:30N 51°00' E 001°37'917.8
2017-Apr-29 10:00N 51°05' E 001°25'4 7.8
2017-Apr-29 09:30N 51°07' E 001°20'0 0.0
2017-Apr-29 09:00N 51°07' E 001°20'3 5.6
2017-Apr-29 08:31N 51°07' E 001°24'1019.2
2017-Apr-29 08:00N 51°01' E 001°37'917.3
2017-Apr-29 07:30N 50°58' E 001°50'1 1.7
2017-Apr-29 07:00N 50°58' E 001°51'0 0.0
2017-Apr-29 06:30N 50°58' E 001°51'3 6.3
2017-Apr-29 06:00N 50°58' E 001°46'815.4
2017-Apr-29 05:30N 51°01' E 001°35'816.2
2017-Apr-29 05:00N 51°06' E 001°24'3 6.4
2017-Apr-29 04:30N 51°07' E 001°20'0 0.0
2017-Apr-29 03:56N 51°07' E 001°20'4 8.9
2017-Apr-29 03:30N 51°07' E 001°26'815.7
2017-Apr-29 03:00N 51°02' E 001°36'816.0
2017-Apr-29 02:30N 50°58' E 001°47'2 5.0
2017-Apr-29 02:00N 50°58' E 001°51'0 0.0
2017-Apr-29 01:30N 50°58' E 001°51'1 2.6
2017-Apr-29 01:01N 50°58' E 001°49'918.7
2017-Apr-29 00:31N 50°60' E 001°34'816.3
2017-Apr-29 00:01N 51°05' E 001°25'4 7.4
2017-Apr-28 23:30N 51°07' E 001°20'0 0.0
2017-Apr-28 23:00N 51°07' E 001°20'1 2.2
2017-Apr-28 22:30N 51°07' E 001°22'919.0
2017-Apr-28 22:00N 51°03' E 001°35'917.5
2017-Apr-28 21:31N 50°58' E 001°47'3 5.3
2017-Apr-28 21:00N 50°58' E 001°51'0 0.0
2017-Apr-28 20:30N 50°58' E 001°51'510.6
2017-Apr-28 20:01N 50°58' E 001°43'815.5
2017-Apr-28 19:31N 51°01' E 001°32'816.8
2017-Apr-28 19:01N 51°07' E 001°22'1 2.4
2017-Apr-28 18:30N 51°07' E 001°20'0 0.0
2017-Apr-28 18:00N 51°07' E 001°20'611.3
2017-Apr-28 17:30N 51°06' E 001°29'917.9
2017-Apr-28 17:01N 51°00' E 001°40'714.7
2017-Apr-28 16:31N 50°58' E 001°51'0 0.2
2017-Apr-28 16:00N 50°58' E 001°51'2 4.7
2017-Apr-28 15:30N 50°58' E 001°47'816.9
2017-Apr-28 15:00N 51°00' E 001°35'1211.4
2017-Apr-28 14:00N 51°07' E 001°20'0 0.0
2017-Apr-28 13:30N 51°07' E 001°20'5 9.2
2017-Apr-28 13:00N 51°06' E 001°27'1019.4
2017-Apr-28 12:30N 51°01' E 001°40'714.7
2017-Apr-28 12:01N 50°58' E 001°51'0 0.6
2017-Apr-28 11:31N 50°58' E 001°51'0 1.0
2017-Apr-28 11:00N 50°58' E 001°51'917.6
2017-Apr-28 10:30N 50°60' E 001°37'918.2
2017-Apr-28 10:00N 51°05' E 001°25'4 7.9
2017-Apr-28 09:30N 51°07' E 001°20'0 0.0
2017-Apr-28 09:00N 51°07' E 001°20'3 5.6
2017-Apr-28 08:31N 51°07' E 001°24'918.8
2017-Apr-28 08:01N 51°01' E 001°37'917.3
2017-Apr-28 07:30N 50°58' E 001°50'1 2.2
2017-Apr-28 07:00N 50°58' E 001°51'0 0.0
2017-Apr-28 06:30N 50°58' E 001°51'4 8.0
2017-Apr-28 06:00N 50°58' E 001°45'815.6
2017-Apr-28 05:31N 51°01' E 001°33'816.7
2017-Apr-28 05:00N 51°06' E 001°23'2 4.6
2017-Apr-28 04:30N 51°07' E 001°20'0 0.0
2017-Apr-28 04:00N 51°07' E 001°20'3 6.9
2017-Apr-28 03:30N 51°07' E 001°25'815.8
2017-Apr-28 03:00N 51°02' E 001°36'815.8
2017-Apr-28 02:30N 50°58' E 001°47'3 5.8
2017-Apr-28 02:00N 50°58' E 001°51'0 0.0
2017-Apr-28 01:30N 50°58' E 001°51'1 1.6
2017-Apr-28 01:00N 50°58' E 001°50'917.6
2017-Apr-28 00:30N 50°60' E 001°36'917.2
2017-Apr-28 00:00N 51°05' E 001°26'4 8.3
2017-Apr-27 23:30N 51°07' E 001°20'0 0.0
2017-Apr-27 23:00N 51°07' E 001°20'1 2.3
2017-Apr-27 22:30N 51°07' E 001°22'917.4
2017-Apr-27 22:00N 51°04' E 001°35'918.0
2017-Apr-27 21:30N 50°58' E 001°46'3 6.8
2017-Apr-27 21:01N 50°58' E 001°51'0 0.0
2017-Apr-27 20:30N 50°58' E 001°51'4 8.4
2017-Apr-27 20:00N 50°58' E 001°44'816.2
2017-Apr-27 19:30N 51°01' E 001°33'917.7
2017-Apr-27 19:00N 51°07' E 001°22'1 2.2
2017-Apr-27 18:31N 51°07' E 001°20'0 0.0
2017-Apr-27 18:01N 51°07' E 001°20'612.1
2017-Apr-27 17:30N 51°06' E 001°29'918.0
2017-Apr-27 17:00N 51°00' E 001°41'713.8
2017-Apr-27 16:30N 50°58' E 001°51'0 0.1
2017-Apr-27 16:00N 50°58' E 001°51'3 5.0
2017-Apr-27 15:30N 50°58' E 001°47'816.4
2017-Apr-27 15:01N 51°01' E 001°35'1111.5
2017-Apr-27 14:01N 51°07' E 001°20'0 0.0
2017-Apr-27 13:30N 51°07' E 001°20'4 7.3
2017-Apr-27 13:01N 51°07' E 001°26'1019.7
2017-Apr-27 12:31N 51°02' E 001°40'815.4
2017-Apr-27 12:00N 50°58' E 001°50'1 1.1
2017-Apr-27 11:30N 50°58' E 001°51'0 0.1
2017-Apr-27 11:00N 50°58' E 001°51'916.8
2017-Apr-27 10:30N 50°58' E 001°38'817.1
2017-Apr-27 10:00N 51°03' E 001°27'611.8
2017-Apr-27 09:30N 51°07' E 001°20'0 0.0
2017-Apr-27 09:00N 51°07' E 001°20'4 7.2
2017-Apr-27 08:31N 51°06' E 001°25'918.3
2017-Apr-27 08:00N 51°01' E 001°38'816.6
2017-Apr-27 07:31N 50°58' E 001°50'1 1.5
2017-Apr-27 07:00N 50°58' E 001°51'0 0.0
2017-Apr-27 06:30N 50°58' E 001°51'4 7.1
2017-Apr-27 06:00N 50°58' E 001°46'815.4
2017-Apr-27 05:31N 51°01' E 001°34'917.1
2017-Apr-27 05:01N 51°06' E 001°23'3 5.2
2017-Apr-27 04:30N 51°07' E 001°20'0 0.0
2017-Apr-27 04:00N 51°07' E 001°20'4 7.5
2017-Apr-27 03:30N 51°07' E 001°26'815.7
2017-Apr-27 03:00N 51°03' E 001°37'815.4
2017-Apr-27 02:30N 50°58' E 001°46'3 5.9
2017-Apr-27 02:00N 50°58' E 001°51'0 0.0
2017-Apr-27 01:31N 50°58' E 001°51'0 0.4
2017-Apr-27 01:01N 50°58' E 001°51'816.9
2017-Apr-27 00:31N 50°59' E 001°37'917.4
2017-Apr-27 00:01N 51°04' E 001°26'5 8.8
2017-Apr-26 23:25N 51°07' E 001°20'0 0.0
2017-Apr-26 23:01N 51°07' E 001°20'3 5.4
2017-Apr-26 22:30N 51°07' E 001°24'815.6
2017-Apr-26 22:00N 51°04' E 001°36'816.2
2017-Apr-26 21:31N 50°58' E 001°45'4 7.4
2017-Apr-26 21:01N 50°58' E 001°51'0 0.0
2017-Apr-26 20:31N 50°58' E 001°51'5 9.2
2017-Apr-26 20:01N 50°58' E 001°44'815.9
2017-Apr-26 19:31N 51°01' E 001°32'1019.9
2017-Apr-26 19:00N 51°07' E 001°20'0 0.0
2017-Apr-26 18:30N 51°07' E 001°20'0 0.2
2017-Apr-26 18:00N 51°07' E 001°20'815.7
2017-Apr-26 17:30N 51°04' E 001°31'1020.8
2017-Apr-26 17:00N 50°58' E 001°45'4 8.0
2017-Apr-26 16:30N 50°58' E 001°51'0 0.0
2017-Apr-26 16:00N 50°58' E 001°51'2 3.9
2017-Apr-26 15:30N 50°58' E 001°48'815.4
2017-Apr-26 15:01N 51°00' E 001°36'918.1
2017-Apr-26 14:31N 51°06' E 001°25'3 3.5
2017-Apr-26 13:30N 51°07' E 001°20'510.7
2017-Apr-26 13:01N 51°06' E 001°28'1019.7
2017-Apr-26 12:31N 51°00' E 001°41'712.9
2017-Apr-26 12:00N 50°58' E 001°51'0 0.0
2017-Apr-26 11:31N 50°58' E 001°51'2 4.2
2017-Apr-26 11:00N 50°58' E 001°48'815.4
2017-Apr-26 10:31N 50°60' E 001°36'918.4
2017-Apr-26 10:01N 51°05' E 001°24'3 5.3
2017-Apr-26 09:22N 51°07' E 001°20'0 0.0
2017-Apr-26 09:00N 51°07' E 001°20'4 8.6
2017-Apr-26 08:30N 51°06' E 001°26'918.6
2017-Apr-26 08:01N 51°01' E 001°39'815.8
2017-Apr-26 07:30N 50°58' E 001°51'0 0.8
2017-Apr-26 07:00N 50°58' E 001°51'0 0.0
2017-Apr-26 06:30N 50°58' E 001°51'3 6.5
2017-Apr-26 06:00N 50°58' E 001°46'815.6
2017-Apr-26 05:31N 51°01' E 001°35'917.3
2017-Apr-26 05:01N 51°06' E 001°23'3 5.1
2017-Apr-26 04:30N 51°07' E 001°20'0 0.0
2017-Apr-26 04:00N 51°07' E 001°20'4 9.2
2017-Apr-26 03:30N 51°06' E 001°27'815.8
2017-Apr-26 03:00N 51°02' E 001°37'815.2
2017-Apr-26 02:31N 50°58' E 001°48'2 4.2
2017-Apr-26 02:00N 50°58' E 001°51'0 0.0
2017-Apr-26 01:30N 50°58' E 001°51'1 2.2
2017-Apr-26 01:00N 50°58' E 001°50'714.3
2017-Apr-26 00:30N 50°60' E 001°38'917.2
2017-Apr-26 00:00N 51°05' E 001°28'510.7
2017-Apr-25 23:30N 51°07' E 001°20'0 0.0
2017-Apr-25 22:59N 51°07' E 001°20'2 3.3
2017-Apr-25 22:31N 51°07' E 001°23'815.9
2017-Apr-25 22:01N 51°03' E 001°34'816.2
2017-Apr-25 21:30N 50°59' E 001°44'4 8.9
2017-Apr-25 21:00N 50°58' E 001°51'0 0.0
2017-Apr-25 20:30N 50°58' E 001°51'4 7.9
2017-Apr-25 20:00N 50°58' E 001°45'917.3
2017-Apr-25 19:30N 51°02' E 001°33'917.0
2017-Apr-25 19:00N 51°07' E 001°22'1 2.4
2017-Apr-25 18:31N 51°07' E 001°20'0 0.0
2017-Apr-25 18:00N 51°07' E 001°20'715.0
2017-Apr-25 17:31N 51°05' E 001°31'917.4
2017-Apr-25 17:00N 50°59' E 001°42'612.1
2017-Apr-25 16:30N 50°58' E 001°51'0 0.0
2017-Apr-25 16:00N 50°58' E 001°51'2 4.4
2017-Apr-25 15:31N 50°58' E 001°48'816.2
2017-Apr-25 15:00N 51°00' E 001°35'1212.0
2017-Apr-25 14:01N 51°07' E 001°20'0 0.0
2017-Apr-25 13:30N 51°07' E 001°20'5 9.7
2017-Apr-25 13:00N 51°06' E 001°27'1019.8
2017-Apr-25 12:30N 51°00' E 001°40'714.5
2017-Apr-25 12:00N 50°58' E 001°51'0 0.1
2017-Apr-25 11:30N 50°58' E 001°51'0 0.9
2017-Apr-25 11:00N 50°58' E 001°51'918.1
2017-Apr-25 10:30N 50°60' E 001°36'918.1
2017-Apr-25 10:00N 51°05' E 001°25'4 7.1
2017-Apr-25 09:30N 51°07' E 001°20'0 0.0
2017-Apr-25 09:00N 51°07' E 001°20'3 5.2
2017-Apr-25 08:31N 51°07' E 001°24'918.0
2017-Apr-25 08:01N 51°02' E 001°36'917.3
2017-Apr-25 07:31N 50°58' E 001°49'2 3.3
2017-Apr-25 07:00N 50°58' E 001°51'0 0.0
2017-Apr-25 06:30N 50°58' E 001°51'3 5.3
2017-Apr-25 06:01N 50°58' E 001°47'714.9
2017-Apr-25 05:30N 51°01' E 001°36'816.9
2017-Apr-25 05:00N 51°05' E 001°25'4 7.3
2017-Apr-25 04:30N 51°07' E 001°20'0 0.0
2017-Apr-25 04:00N 51°07' E 001°20'2 4.5
2017-Apr-25 03:30N 51°07' E 001°24'917.7
2017-Apr-25 03:00N 51°03' E 001°36'917.2
2017-Apr-25 02:30N 50°58' E 001°47'2 4.7
2017-Apr-25 02:00N 50°58' E 001°51'0 0.0
2017-Apr-25 01:31N 50°58' E 001°51'0 1.0
2017-Apr-25 01:00N 50°58' E 001°51'815.9
2017-Apr-25 00:30N 50°60' E 001°38'917.1
2017-Apr-25 00:00N 51°05' E 001°27'5 9.6
2017-Apr-24 23:28N 51°07' E 001°20'0 0.0
2017-Apr-24 23:00N 51°07' E 001°20'3 5.3
2017-Apr-24 22:31N 51°07' E 001°24'816.5
2017-Apr-24 22:01N 51°03' E 001°36'816.0
2017-Apr-24 21:31N 50°58' E 001°46'3 6.6
2017-Apr-24 21:00N 50°58' E 001°51'0 0.0
2017-Apr-24 20:30N 50°58' E 001°51'3 6.9
2017-Apr-24 20:00N 50°58' E 001°46'816.0
2017-Apr-24 19:30N 50°59' E 001°33'816.4
2017-Apr-24 19:00N 51°05' E 001°24'4 7.0
2017-Apr-24 18:30N 51°07' E 001°20'0 0.0
2017-Apr-24 18:00N 51°07' E 001°20'5 9.3
2017-Apr-24 17:31N 51°06' E 001°27'918.5
2017-Apr-24 17:01N 51°01' E 001°39'816.0
2017-Apr-24 16:30N 50°58' E 001°51'0 0.3
2017-Apr-24 16:00N 50°58' E 001°51'1 1.6
2017-Apr-24 15:30N 50°58' E 001°50'815.7
2017-Apr-24 15:00N 50°60' E 001°38'918.1
2017-Apr-24 14:30N 51°05' E 001°26'4 4.3
2017-Apr-24 13:28N 51°07' E 001°20'510.0
2017-Apr-24 13:00N 51°07' E 001°27'918.1
2017-Apr-24 12:30N 51°01' E 001°39'816.0
2017-Apr-24 12:00N 50°58' E 001°51'0 0.6
2017-Apr-24 11:30N 50°58' E 001°51'0 0.7
2017-Apr-24 11:00N 50°58' E 001°51'816.4
2017-Apr-24 10:31N 50°59' E 001°38'917.7
2017-Apr-24 10:01N 51°04' E 001°26'5 8.1
2017-Apr-24 09:23N 51°07' E 001°20'0 0.0
2017-Apr-24 09:00N 51°07' E 001°20'3 6.1
2017-Apr-24 08:30N 51°07' E 001°25'918.0
2017-Apr-24 08:01N 51°03' E 001°38'816.9
2017-Apr-24 07:30N 50°58' E 001°49'2 3.1
2017-Apr-24 07:00N 50°58' E 001°51'0 0.0
2017-Apr-24 06:30N 50°58' E 001°51'3 5.8
2017-Apr-24 06:00N 50°58' E 001°47'715.0
2017-Apr-24 05:31N 51°02' E 001°36'816.7
2017-Apr-24 05:00N 51°06' E 001°25'3 6.6
2017-Apr-24 04:30N 51°07' E 001°20'0 0.0
2017-Apr-24 04:00N 51°07' E 001°20'3 6.0
2017-Apr-24 03:31N 51°06' E 001°25'816.7
2017-Apr-24 03:00N 51°02' E 001°36'816.7
2017-Apr-24 02:31N 50°58' E 001°48'2 4.3
2017-Apr-24 02:00N 50°58' E 001°51'0 0.0
2017-Apr-24 01:30N 50°58' E 001°51'2 4.6
2017-Apr-24 01:01N 50°58' E 001°47'816.5
2017-Apr-24 00:30N 50°59' E 001°34'815.9
2017-Apr-24 00:01N 51°05' E 001°25'4 8.0
2017-Apr-23 23:29N 51°07' E 001°20'0 0.0
2017-Apr-23 23:00N 51°07' E 001°20'2 3.7
2017-Apr-23 22:30N 51°07' E 001°23'816.8
2017-Apr-23 22:00N 51°03' E 001°35'816.7
2017-Apr-23 21:30N 50°58' E 001°46'4 7.2
2017-Apr-23 21:00N 50°58' E 001°51'0 0.0
2017-Apr-23 20:30N 50°58' E 001°51'5 9.3
2017-Apr-23 20:00N 50°58' E 001°44'816.2
2017-Apr-23 19:31N 51°01' E 001°32'815.9
2017-Apr-23 19:01N 51°06' E 001°22'2 3.6
2017-Apr-23 18:30N 51°07' E 001°20'0 0.0
2017-Apr-23 18:00N 51°07' E 001°20'5 9.9
2017-Apr-23 17:30N 51°06' E 001°28'918.4
2017-Apr-23 17:00N 51°01' E 001°40'815.2
2017-Apr-23 16:31N 50°58' E 001°51'0 0.3
2017-Apr-23 16:00N 50°58' E 001°51'0 0.5
2017-Apr-23 15:31N 50°58' E 001°51'714.8
2017-Apr-23 15:01N 50°59' E 001°39'1514.7
2017-Apr-23 14:00N 51°07' E 001°20'0 0.0
2017-Apr-23 13:30N 51°07' E 001°20'5 9.2
2017-Apr-23 13:01N 51°06' E 001°27'918.8
2017-Apr-23 12:30N 51°01' E 001°39'815.6
2017-Apr-23 12:01N 50°58' E 001°51'0 0.3
2017-Apr-23 11:30N 50°58' E 001°51'1 1.5
2017-Apr-23 11:00N 50°58' E 001°50'917.5
2017-Apr-23 10:30N 51°00' E 001°37'918.1
2017-Apr-23 10:00N 51°05' E 001°25'4 7.2
2017-Apr-23 09:30N 51°07' E 001°20'3 5.6
2017-Apr-23 09:01N 51°07' E 001°25'1020.8
2017-Apr-23 08:31N 51°01' E 001°38'816.7
2017-Apr-23 08:01N 50°58' E 001°51'0 0.6
2017-Apr-23 07:31N 50°58' E 001°51'0 0.0
2017-Apr-23 07:00N 50°58' E 001°51'0 0.0
2017-Apr-23 06:31N 50°58' E 001°51'0 0.0
2017-Apr-23 06:00N 50°58' E 001°51'0 0.0
2017-Apr-23 05:30N 50°58' E 001°51'0 0.0
2017-Apr-23 05:01N 50°58' E 001°51'0 0.0
2017-Apr-23 04:31N 50°58' E 001°51'0 0.0
2017-Apr-23 04:00N 50°58' E 001°51'0 0.0
2017-Apr-23 03:31N 50°58' E 001°51'0 0.0
2017-Apr-23 03:01N 50°58' E 001°51'0 0.0
2017-Apr-23 02:31N 50°58' E 001°51'0 0.0
2017-Apr-23 02:00N 50°58' E 001°51'0 0.0
2017-Apr-23 01:31N 50°58' E 001°51'2 3.0
2017-Apr-23 01:00N 50°58' E 001°49'815.9
2017-Apr-23 00:30N 50°60' E 001°36'917.3
2017-Apr-23 00:00N 51°05' E 001°26'4 8.3
2017-Apr-22 23:30N 51°07' E 001°20'0 0.0
2017-Apr-22 23:00N 51°07' E 001°20'3 5.6
2017-Apr-22 22:30N 51°07' E 001°25'918.6
2017-Apr-22 22:00N 51°02' E 001°37'816.6
2017-Apr-22 21:30N 50°58' E 001°49'2 3.1
2017-Apr-22 21:00N 50°58' E 001°51'0 0.0
2017-Apr-22 20:30N 50°58' E 001°51'4 8.1
2017-Apr-22 20:00N 50°58' E 001°45'917.5
2017-Apr-22 19:30N 51°01' E 001°32'816.5
2017-Apr-22 19:00N 51°07' E 001°22'1 2.6
2017-Apr-22 18:29N 51°07' E 001°20'0 0.0
2017-Apr-22 17:59N 51°07' E 001°20'714.8
2017-Apr-22 17:30N 51°05' E 001°31'1020.8
2017-Apr-22 17:00N 50°58' E 001°44'5 9.3
2017-Apr-22 16:30N 50°58' E 001°51'0 0.0
2017-Apr-22 16:00N 50°58' E 001°51'3 5.5
2017-Apr-22 15:30N 50°58' E 001°47'917.8
2017-Apr-22 15:00N 51°00' E 001°33'1019.5
2017-Apr-22 14:30N 51°07' E 001°22'1 1.2
2017-Apr-22 13:30N 51°07' E 001°20'714.5
2017-Apr-22 13:00N 51°04' E 001°31'1121.0
2017-Apr-22 12:30N 50°58' E 001°44'4 8.9
2017-Apr-22 12:00N 50°58' E 001°51'0 0.0
2017-Apr-22 11:31N 50°58' E 001°51'1 2.5
2017-Apr-22 11:00N 50°58' E 001°49'816.1
2017-Apr-22 10:30N 50°59' E 001°37'918.0
2017-Apr-22 10:00N 51°05' E 001°26'4 8.3
2017-Apr-22 09:30N 51°07' E 001°20'0 0.0
2017-Apr-22 08:59N 51°07' E 001°20'3 5.2
2017-Apr-22 08:30N 51°07' E 001°24'918.4
2017-Apr-22 08:00N 51°02' E 001°36'917.1
2017-Apr-22 07:30N 50°58' E 001°49'2 3.4
2017-Apr-22 07:00N 50°58' E 001°51'0 0.0
2017-Apr-22 06:31N 50°58' E 001°51'3 6.0
2017-Apr-22 06:00N 50°58' E 001°46'816.6
2017-Apr-22 05:30N 51°01' E 001°34'816.9
2017-Apr-22 05:00N 51°06' E 001°24'3 5.0
2017-Apr-22 04:30N 51°07' E 001°20'0 0.0
2017-Apr-22 04:00N 51°07' E 001°20'2 3.9
2017-Apr-22 03:30N 51°07' E 001°23'816.8
2017-Apr-22 03:01N 51°03' E 001°35'816.9
2017-Apr-22 02:31N 50°58' E 001°46'3 7.0
2017-Apr-22 02:01N 50°58' E 001°51'0 0.0
2017-Apr-22 01:31N 50°58' E 001°51'1 2.0
2017-Apr-22 01:00N 50°58' E 001°50'815.4
2017-Apr-22 00:31N 50°60' E 001°38'917.2
2017-Apr-22 00:00N 51°04' E 001°26'5 9.9
2017-Apr-21 23:30N 51°07' E 001°20'0 0.0
2017-Apr-21 23:00N 51°07' E 001°20'2 4.1
2017-Apr-21 22:31N 51°07' E 001°23'815.9
2017-Apr-21 22:01N 51°03' E 001°34'816.4
2017-Apr-21 21:31N 50°58' E 001°45'4 8.2
2017-Apr-21 21:00N 50°58' E 001°51'0 0.0
2017-Apr-21 20:30N 50°58' E 001°51'5 9.3
2017-Apr-21 20:00N 50°58' E 001°44'918.1
2017-Apr-21 19:30N 51°03' E 001°32'816.7
2017-Apr-21 19:00N 51°07' E 001°21'0 0.6
2017-Apr-21 18:30N 51°07' E 001°20'0 0.0
2017-Apr-21 17:59N 51°07' E 001°20'4 8.9
2017-Apr-21 17:30N 51°06' E 001°26'918.1
2017-Apr-21 17:00N 51°01' E 001°39'816.1
2017-Apr-21 16:31N 50°58' E 001°51'0 0.8
2017-Apr-21 16:01N 50°58' E 001°51'0 0.9
2017-Apr-21 15:30N 50°58' E 001°51'815.9
2017-Apr-21 15:00N 50°59' E 001°38'918.0
2017-Apr-21 14:30N 51°04' E 001°27'5 4.9
2017-Apr-21 13:28N 51°07' E 001°20'4 8.9
2017-Apr-21 13:00N 51°06' E 001°26'917.7
2017-Apr-21 12:30N 51°01' E 001°38'816.5
2017-Apr-21 12:01N 50°58' E 001°50'1 1.5
2017-Apr-21 11:31N 50°58' E 001°51'0 0.2
2017-Apr-21 11:01N 50°58' E 001°51'713.9
2017-Apr-21 10:30N 50°59' E 001°40'917.1
2017-Apr-21 10:00N 51°04' E 001°29'713.6
2017-Apr-21 09:30N 51°07' E 001°20'0 0.0
2017-Apr-21 09:00N 51°07' E 001°20'3 6.4
2017-Apr-21 08:30N 51°07' E 001°25'918.0
2017-Apr-21 08:00N 51°02' E 001°37'917.2
2017-Apr-21 07:30N 50°58' E 001°49'1 2.9
2017-Apr-21 07:00N 50°58' E 001°51'0 0.0
2017-Apr-21 06:30N 50°58' E 001°51'4 7.4
2017-Apr-21 06:00N 50°58' E 001°45'816.8
2017-Apr-21 05:30N 50°59' E 001°32'917.3
2017-Apr-21 05:00N 51°06' E 001°23'3 5.2
2017-Apr-21 04:30N 51°07' E 001°20'0 0.0
2017-Apr-21 04:00N 51°07' E 001°20'3 5.2
2017-Apr-21 03:30N 51°07' E 001°24'816.9
2017-Apr-21 03:00N 51°03' E 001°36'816.8
2017-Apr-21 02:30N 50°58' E 001°47'3 5.2
2017-Apr-21 02:00N 50°58' E 001°51'0 0.0
2017-Apr-21 01:30N 50°58' E 001°51'2 3.1
2017-Apr-21 01:00N 50°58' E 001°49'815.3
2017-Apr-21 00:30N 50°59' E 001°37'816.9
2017-Apr-21 00:00N 51°05' E 001°26'5 9.2
2017-Apr-20 23:30N 51°07' E 001°20'0 0.0
2017-Apr-20 23:00N 51°07' E 001°20'1 2.5
2017-Apr-20 22:30N 51°07' E 001°22'817.0
2017-Apr-20 22:00N 51°04' E 001°34'817.0
2017-Apr-20 21:30N 50°58' E 001°45'4 8.3
2017-Apr-20 21:01N 50°58' E 001°51'0 0.0
2017-Apr-20 20:31N 50°58' E 001°51'4 7.5
2017-Apr-20 20:01N 50°58' E 001°45'816.0
2017-Apr-20 19:30N 51°01' E 001°33'815.9
2017-Apr-20 19:01N 51°06' E 001°24'3 5.5
2017-Apr-20 18:30N 51°07' E 001°20'0 0.0
2017-Apr-20 18:00N 51°07' E 001°20'5 9.7
2017-Apr-20 17:31N 51°06' E 001°27'918.5
2017-Apr-20 17:01N 51°01' E 001°40'815.1
2017-Apr-20 16:30N 50°58' E 001°51'0 0.4
2017-Apr-20 16:00N 50°58' E 001°51'0 0.7
2017-Apr-20 15:30N 50°58' E 001°51'816.8
2017-Apr-20 15:00N 50°59' E 001°37'  
Track history (hours):
 
Tides and Currents Weather Stations Pressure Air Temp Water Temp Dewpoint Dewpoint Depression Visibility Wind Speed Wind Dir Waves Ship Positions

Seafrance Rodin

Operator: SeaFrance

Last reported at 2017-Apr-30 14:30 UTC. Time now 2017-Apr-30 14:52 UTC.
Position N 51°04' E 001°27'.

Length 185 m; draft 6 m.

MMSI: 227022800.

Date/timePositionNaut miles runAvg speedWind from/ knotsBaromVisibWave heightAir tempDewpointWater temp
2017-Apr-30 14:30N 51°04' E 001°27'5 5.1
2017-Apr-30 13:30N 51°07' E 001°20'3 5.3
2017-Apr-30 13:00N 51°07' E 001°24'1121.3
2017-Apr-30 12:30N 51°01' E 001°38'917.1
2017-Apr-30 12:01N 50°58' E 001°51'0 0.8
2017-Apr-30 11:30N 50°58' E 001°52'0 0.0
2017-Apr-30 11:01N 50°58' E 001°52'0 0.0
2017-Apr-30 10:30N 50°58' E 001°52'0 0.0
2017-Apr-30 10:00N 50°58' E 001°52'0 0.0
2017-Apr-30 09:30N 50°58' E 001°52'0 0.0
2017-Apr-30 09:01N 50°58' E 001°52'0 0.0
2017-Apr-30 08:30N 50°58' E 001°52'0 0.0
2017-Apr-30 08:00N 50°58' E 001°52'0 0.0
2017-Apr-30 07:29N 50°58' E 001°52'0 0.0
2017-Apr-30 07:01N 50°58' E 001°52'0 0.0
2017-Apr-30 06:30N 50°58' E 001°52'0 0.0
2017-Apr-30 06:01N 50°58' E 001°52'0 0.0
2017-Apr-30 05:31N 50°58' E 001°52'0 0.0
2017-Apr-30 05:00N 50°58' E 001°52'0 0.0
2017-Apr-30 04:30N 50°58' E 001°52'0 0.0
2017-Apr-30 04:00N 50°58' E 001°52'0 0.0
2017-Apr-30 03:30N 50°58' E 001°52'0 0.0
2017-Apr-30 03:00N 50°58' E 001°52'0 0.0
2017-Apr-30 02:31N 50°58' E 001°52'0 0.0
2017-Apr-30 02:00N 50°58' E 001°52'0 0.0
2017-Apr-30 01:31N 50°58' E 001°52'2 3.7
2017-Apr-30 01:01N 50°58' E 001°49'1019.5
2017-Apr-30 00:31N 50°60' E 001°33'918.2
2017-Apr-30 00:01N 51°06' E 001°23'2 4.6
2017-Apr-29 23:30N 51°07' E 001°20'0 0.0
2017-Apr-29 23:00N 51°07' E 001°20'3 7.1
2017-Apr-29 22:30N 51°06' E 001°25'918.1
2017-Apr-29 22:00N 51°01' E 001°37'917.6
2017-Apr-29 21:30N 50°58' E 001°50'1 1.3
2017-Apr-29 21:00N 50°58' E 001°51'0 0.0
2017-Apr-29 20:30N 50°58' E 001°51'3 6.5
2017-Apr-29 20:00N 50°58' E 001°46'816.1
2017-Apr-29 19:30N 51°01' E 001°34'917.9
2017-Apr-29 19:00N 51°06' E 001°23'2 4.0
2017-Apr-29 18:30N 51°07' E 001°20'0 0.0
2017-Apr-29 18:00N 51°07' E 001°20'612.3
2017-Apr-29 17:31N 51°06' E 001°30'918.6
2017-Apr-29 17:01N 51°00' E 001°41'713.0
2017-Apr-29 16:30N 50°58' E 001°51'0 0.2
2017-Apr-29 16:00N 50°58' E 001°51'2 4.5
2017-Apr-29 15:30N 50°58' E 001°48'816.6
2017-Apr-29 15:00N 51°00' E 001°35'1211.6
2017-Apr-29 13:59N 51°07' E 001°20'0 0.0
2017-Apr-29 13:28N 51°07' E 001°20'511.7
2017-Apr-29 13:00N 51°05' E 001°28'1121.6
2017-Apr-29 12:30N 50°59' E 001°42'611.6
2017-Apr-29 12:00N 50°58' E 001°51'0 0.0
2017-Apr-29 11:30N 50°58' E 001°51'1 1.7
2017-Apr-29 11:01N 50°58' E 001°50'816.9
2017-Apr-29 10:30N 51°00' E 001°37'917.8
2017-Apr-29 10:00N 51°05' E 001°25'4 7.8
2017-Apr-29 09:30N 51°07' E 001°20'0 0.0
2017-Apr-29 09:00N 51°07' E 001°20'3 5.6
2017-Apr-29 08:31N 51°07' E 001°24'1019.2
2017-Apr-29 08:00N 51°01' E 001°37'917.3
2017-Apr-29 07:30N 50°58' E 001°50'1 1.7
2017-Apr-29 07:00N 50°58' E 001°51'0 0.0
2017-Apr-29 06:30N 50°58' E 001°51'3 6.3
2017-Apr-29 06:00N 50°58' E 001°46'815.4
2017-Apr-29 05:30N 51°01' E 001°35'816.2
2017-Apr-29 05:00N 51°06' E 001°24'3 6.4
2017-Apr-29 04:30N 51°07' E 001°20'0 0.0
2017-Apr-29 03:56N 51°07' E 001°20'4 8.9
2017-Apr-29 03:30N 51°07' E 001°26'815.7
2017-Apr-29 03:00N 51°02' E 001°36'816.0
2017-Apr-29 02:30N 50°58' E 001°47'2 5.0
2017-Apr-29 02:00N 50°58' E 001°51'0 0.0
2017-Apr-29 01:30N 50°58' E 001°51'1 2.6
2017-Apr-29 01:01N 50°58' E 001°49'918.7
2017-Apr-29 00:31N 50°60' E 001°34'816.3
2017-Apr-29 00:01N 51°05' E 001°25'4 7.4
2017-Apr-28 23:30N 51°07' E 001°20'0 0.0
2017-Apr-28 23:00N 51°07' E 001°20'1 2.2
2017-Apr-28 22:30N 51°07' E 001°22'919.0
2017-Apr-28 22:00N 51°03' E 001°35'917.5
2017-Apr-28 21:31N 50°58' E 001°47'3 5.3
2017-Apr-28 21:00N 50°58' E 001°51'0 0.0
2017-Apr-28 20:30N 50°58' E 001°51'510.6
2017-Apr-28 20:01N 50°58' E 001°43'815.5
2017-Apr-28 19:31N 51°01' E 001°32'816.8
2017-Apr-28 19:01N 51°07' E 001°22'1 2.4
2017-Apr-28 18:30N 51°07' E 001°20'0 0.0
2017-Apr-28 18:00N 51°07' E 001°20'611.3
2017-Apr-28 17:30N 51°06' E 001°29'917.9
2017-Apr-28 17:01N 51°00' E 001°40'714.7
2017-Apr-28 16:31N 50°58' E 001°51'0 0.2
2017-Apr-28 16:00N 50°58' E 001°51'2 4.7
2017-Apr-28 15:30N 50°58' E 001°47'816.9
2017-Apr-28 15:00N 51°00' E 001°35'1211.4
2017-Apr-28 14:00N 51°07' E 001°20'0 0.0
2017-Apr-28 13:30N 51°07' E 001°20'5 9.2
2017-Apr-28 13:00N 51°06' E 001°27'1019.4
2017-Apr-28 12:30N 51°01' E 001°40'714.7
2017-Apr-28 12:01N 50°58' E 001°51'0 0.6
2017-Apr-28 11:31N 50°58' E 001°51'0 1.0
2017-Apr-28 11:00N 50°58' E 001°51'917.6
2017-Apr-28 10:30N 50°60' E 001°37'918.2
2017-Apr-28 10:00N 51°05' E 001°25'4 7.9
2017-Apr-28 09:30N 51°07' E 001°20'0 0.0
2017-Apr-28 09:00N 51°07' E 001°20'3 5.6
2017-Apr-28 08:31N 51°07' E 001°24'918.8
2017-Apr-28 08:01N 51°01' E 001°37'917.3
2017-Apr-28 07:30N 50°58' E 001°50'1 2.2
2017-Apr-28 07:00N 50°58' E 001°51'0 0.0
2017-Apr-28 06:30N 50°58' E 001°51'4 8.0
2017-Apr-28 06:00N 50°58' E 001°45'815.6
2017-Apr-28 05:31N 51°01' E 001°33'816.7
2017-Apr-28 05:00N 51°06' E 001°23'2 4.6
2017-Apr-28 04:30N 51°07' E 001°20'0 0.0
2017-Apr-28 04:00N 51°07' E 001°20'3 6.9
2017-Apr-28 03:30N 51°07' E 001°25'815.8
2017-Apr-28 03:00N 51°02' E 001°36'815.8
2017-Apr-28 02:30N 50°58' E 001°47'3 5.8
2017-Apr-28 02:00N 50°58' E 001°51'0 0.0
2017-Apr-28 01:30N 50°58' E 001°51'1 1.6
2017-Apr-28 01:00N 50°58' E 001°50'917.6
2017-Apr-28 00:30N 50°60' E 001°36'917.2
2017-Apr-28 00:00N 51°05' E 001°26'4 8.3
2017-Apr-27 23:30N 51°07' E 001°20'0 0.0
2017-Apr-27 23:00N 51°07' E 001°20'1 2.3
2017-Apr-27 22:30N 51°07' E 001°22'917.4
2017-Apr-27 22:00N 51°04' E 001°35'918.0
2017-Apr-27 21:30N 50°58' E 001°46'3 6.8
2017-Apr-27 21:01N 50°58' E 001°51'0 0.0
2017-Apr-27 20:30N 50°58' E 001°51'4 8.4
2017-Apr-27 20:00N 50°58' E 001°44'816.2
2017-Apr-27 19:30N 51°01' E 001°33'917.7
2017-Apr-27 19:00N 51°07' E 001°22'1 2.2
2017-Apr-27 18:31N 51°07' E 001°20'0 0.0
2017-Apr-27 18:01N 51°07' E 001°20'612.1
2017-Apr-27 17:30N 51°06' E 001°29'918.0
2017-Apr-27 17:00N 51°00' E 001°41'713.8
2017-Apr-27 16:30N 50°58' E 001°51'0 0.1
2017-Apr-27 16:00N 50°58' E 001°51'3 5.0
2017-Apr-27 15:30N 50°58' E 001°47'816.4
2017-Apr-27 15:01N 51°01' E 001°35'1111.5
2017-Apr-27 14:01N 51°07' E 001°20'0 0.0
2017-Apr-27 13:30N 51°07' E 001°20'4 7.3
2017-Apr-27 13:01N 51°07' E 001°26'1019.7
2017-Apr-27 12:31N 51°02' E 001°40'815.4
2017-Apr-27 12:00N 50°58' E 001°50'1 1.1
2017-Apr-27 11:30N 50°58' E 001°51'0 0.1
2017-Apr-27 11:00N 50°58' E 001°51'916.8
2017-Apr-27 10:30N 50°58' E 001°38'817.1
2017-Apr-27 10:00N 51°03' E 001°27'611.8
2017-Apr-27 09:30N 51°07' E 001°20'0 0.0
2017-Apr-27 09:00N 51°07' E 001°20'4 7.2
2017-Apr-27 08:31N 51°06' E 001°25'918.3
2017-Apr-27 08:00N 51°01' E 001°38'816.6
2017-Apr-27 07:31N 50°58' E 001°50'1 1.5
2017-Apr-27 07:00N 50°58' E 001°51'0 0.0
2017-Apr-27 06:30N 50°58' E 001°51'4 7.1
2017-Apr-27 06:00N 50°58' E 001°46'815.4
2017-Apr-27 05:31N 51°01' E 001°34'917.1
2017-Apr-27 05:01N 51°06' E 001°23'3 5.2
2017-Apr-27 04:30N 51°07' E 001°20'0 0.0
2017-Apr-27 04:00N 51°07' E 001°20'4 7.5
2017-Apr-27 03:30N 51°07' E 001°26'815.7
2017-Apr-27 03:00N 51°03' E 001°37'815.4
2017-Apr-27 02:30N 50°58' E 001°46'3 5.9
2017-Apr-27 02:00N 50°58' E 001°51'0 0.0
2017-Apr-27 01:31N 50°58' E 001°51'0 0.4
2017-Apr-27 01:01N 50°58' E 001°51'816.9
2017-Apr-27 00:31N 50°59' E 001°37'917.4
2017-Apr-27 00:01N 51°04' E 001°26'5 8.8
2017-Apr-26 23:25N 51°07' E 001°20'0 0.0
2017-Apr-26 23:01N 51°07' E 001°20'3 5.4
2017-Apr-26 22:30N 51°07' E 001°24'815.6
2017-Apr-26 22:00N 51°04' E 001°36'816.2
2017-Apr-26 21:31N 50°58' E 001°45'4 7.4
2017-Apr-26 21:01N 50°58' E 001°51'0 0.0
2017-Apr-26 20:31N 50°58' E 001°51'5 9.2
2017-Apr-26 20:01N 50°58' E 001°44'815.9
2017-Apr-26 19:31N 51°01' E 001°32'1019.9
2017-Apr-26 19:00N 51°07' E 001°20'0 0.0
2017-Apr-26 18:30N 51°07' E 001°20'0 0.2
2017-Apr-26 18:00N 51°07' E 001°20'815.7
2017-Apr-26 17:30N 51°04' E 001°31'1020.8
2017-Apr-26 17:00N 50°58' E 001°45'4 8.0
2017-Apr-26 16:30N 50°58' E 001°51'0 0.0
2017-Apr-26 16:00N 50°58' E 001°51'2 3.9
2017-Apr-26 15:30N 50°58' E 001°48'815.4
2017-Apr-26 15:01N 51°00' E 001°36'918.1
2017-Apr-26 14:31N 51°06' E 001°25'3 3.5
2017-Apr-26 13:30N 51°07' E 001°20'510.7
2017-Apr-26 13:01N 51°06' E 001°28'1019.7
2017-Apr-26 12:31N 51°00' E 001°41'712.9
2017-Apr-26 12:00N 50°58' E 001°51'0 0.0
2017-Apr-26 11:31N 50°58' E 001°51'2 4.2
2017-Apr-26 11:00N 50°58' E 001°48'815.4
2017-Apr-26 10:31N 50°60' E 001°36'918.4
2017-Apr-26 10:01N 51°05' E 001°24'3 5.3
2017-Apr-26 09:22N 51°07' E 001°20'0 0.0
2017-Apr-26 09:00N 51°07' E 001°20'4 8.6
2017-Apr-26 08:30N 51°06' E 001°26'918.6
2017-Apr-26 08:01N 51°01' E 001°39'815.8
2017-Apr-26 07:30N 50°58' E 001°51'0 0.8
2017-Apr-26 07:00N 50°58' E 001°51'0 0.0
2017-Apr-26 06:30N 50°58' E 001°51'3 6.5
2017-Apr-26 06:00N 50°58' E 001°46'815.6
2017-Apr-26 05:31N 51°01' E 001°35'917.3
2017-Apr-26 05:01N 51°06' E 001°23'3 5.1
2017-Apr-26 04:30N 51°07' E 001°20'0 0.0
2017-Apr-26 04:00N 51°07' E 001°20'4 9.2
2017-Apr-26 03:30N 51°06' E 001°27'815.8
2017-Apr-26 03:00N 51°02' E 001°37'815.2
2017-Apr-26 02:31N 50°58' E 001°48'2 4.2
2017-Apr-26 02:00N 50°58' E 001°51'0 0.0
2017-Apr-26 01:30N 50°58' E 001°51'1 2.2
2017-Apr-26 01:00N 50°58' E 001°50'714.3
2017-Apr-26 00:30N 50°60' E 001°38'917.2
2017-Apr-26 00:00N 51°05' E 001°28'510.7
2017-Apr-25 23:30N 51°07' E 001°20'0 0.0
2017-Apr-25 22:59N 51°07' E 001°20'2 3.3
2017-Apr-25 22:31N 51°07' E 001°23'815.9
2017-Apr-25 22:01N 51°03' E 001°34'816.2
2017-Apr-25 21:30N 50°59' E 001°44'4 8.9
2017-Apr-25 21:00N 50°58' E 001°51'0 0.0
2017-Apr-25 20:30N 50°58' E 001°51'4 7.9
2017-Apr-25 20:00N 50°58' E 001°45'917.3
2017-Apr-25 19:30N 51°02' E 001°33'917.0
2017-Apr-25 19:00N 51°07' E 001°22'1 2.4
2017-Apr-25 18:31N 51°07' E 001°20'0 0.0
2017-Apr-25 18:00N 51°07' E 001°20'715.0
2017-Apr-25 17:31N 51°05' E 001°31'917.4
2017-Apr-25 17:00N 50°59' E 001°42'612.1
2017-Apr-25 16:30N 50°58' E 001°51'0 0.0
2017-Apr-25 16:00N 50°58' E 001°51'2 4.4
2017-Apr-25 15:31N 50°58' E 001°48'816.2
2017-Apr-25 15:00N 51°00' E 001°35'1212.0
2017-Apr-25 14:01N 51°07' E 001°20'0 0.0
2017-Apr-25 13:30N 51°07' E 001°20'5 9.7
2017-Apr-25 13:00N 51°06' E 001°27'1019.8
2017-Apr-25 12:30N 51°00' E 001°40'714.5
2017-Apr-25 12:00N 50°58' E 001°51'0 0.1
2017-Apr-25 11:30N 50°58' E 001°51'0 0.9
2017-Apr-25 11:00N 50°58' E 001°51'918.1
2017-Apr-25 10:30N 50°60' E 001°36'918.1
2017-Apr-25 10:00N 51°05' E 001°25'4 7.1
2017-Apr-25 09:30N 51°07' E 001°20'0 0.0
2017-Apr-25 09:00N 51°07' E 001°20'3 5.2
2017-Apr-25 08:31N 51°07' E 001°24'918.0
2017-Apr-25 08:01N 51°02' E 001°36'917.3
2017-Apr-25 07:31N 50°58' E 001°49'2 3.3
2017-Apr-25 07:00N 50°58' E 001°51'0 0.0
2017-Apr-25 06:30N 50°58' E 001°51'3 5.3
2017-Apr-25 06:01N 50°58' E 001°47'714.9
2017-Apr-25 05:30N 51°01' E 001°36'816.9
2017-Apr-25 05:00N 51°05' E 001°25'4 7.3
2017-Apr-25 04:30N 51°07' E 001°20'0 0.0
2017-Apr-25 04:00N 51°07' E 001°20'2 4.5
2017-Apr-25 03:30N 51°07' E 001°24'917.7
2017-Apr-25 03:00N 51°03' E 001°36'917.2
2017-Apr-25 02:30N 50°58' E 001°47'2 4.7
2017-Apr-25 02:00N 50°58' E 001°51'0 0.0
2017-Apr-25 01:31N 50°58' E 001°51'0 1.0
2017-Apr-25 01:00N 50°58' E 001°51'815.9
2017-Apr-25 00:30N 50°60' E 001°38'917.1
2017-Apr-25 00:00N 51°05' E 001°27'5 9.6
2017-Apr-24 23:28N 51°07' E 001°20'0 0.0
2017-Apr-24 23:00N 51°07' E 001°20'3 5.3
2017-Apr-24 22:31N 51°07' E 001°24'816.5
2017-Apr-24 22:01N 51°03' E 001°36'816.0
2017-Apr-24 21:31N 50°58' E 001°46'3 6.6
2017-Apr-24 21:00N 50°58' E 001°51'0 0.0
2017-Apr-24 20:30N 50°58' E 001°51'3 6.9
2017-Apr-24 20:00N 50°58' E 001°46'816.0
2017-Apr-24 19:30N 50°59' E 001°33'816.4
2017-Apr-24 19:00N 51°05' E 001°24'4 7.0
2017-Apr-24 18:30N 51°07' E 001°20'0 0.0
2017-Apr-24 18:00N 51°07' E 001°20'5 9.3
2017-Apr-24 17:31N 51°06' E 001°27'918.5
2017-Apr-24 17:01N 51°01' E 001°39'816.0
2017-Apr-24 16:30N 50°58' E 001°51'0 0.3
2017-Apr-24 16:00N 50°58' E 001°51'1 1.6
2017-Apr-24 15:30N 50°58' E 001°50'815.7
2017-Apr-24 15:00N 50°60' E 001°38'918.1
2017-Apr-24 14:30N 51°05' E 001°26'4 4.3
2017-Apr-24 13:28N 51°07' E 001°20'510.0
2017-Apr-24 13:00N 51°07' E 001°27'918.1
2017-Apr-24 12:30N 51°01' E 001°39'816.0
2017-Apr-24 12:00N 50°58' E 001°51'0 0.6
2017-Apr-24 11:30N 50°58' E 001°51'0 0.7
2017-Apr-24 11:00N 50°58' E 001°51'816.4
2017-Apr-24 10:31N 50°59' E 001°38'917.7
2017-Apr-24 10:01N 51°04' E 001°26'5 8.1
2017-Apr-24 09:23N 51°07' E 001°20'0 0.0
2017-Apr-24 09:00N 51°07' E 001°20'3 6.1
2017-Apr-24 08:30N 51°07' E 001°25'918.0
2017-Apr-24 08:01N 51°03' E 001°38'816.9
2017-Apr-24 07:30N 50°58' E 001°49'2 3.1
2017-Apr-24 07:00N 50°58' E 001°51'0 0.0
2017-Apr-24 06:30N 50°58' E 001°51'3 5.8
2017-Apr-24 06:00N 50°58' E 001°47'715.0
2017-Apr-24 05:31N 51°02' E 001°36'816.7
2017-Apr-24 05:00N 51°06' E 001°25'3 6.6
2017-Apr-24 04:30N 51°07' E 001°20'0 0.0
2017-Apr-24 04:00N 51°07' E 001°20'3 6.0
2017-Apr-24 03:31N 51°06' E 001°25'816.7
2017-Apr-24 03:00N 51°02' E 001°36'816.7
2017-Apr-24 02:31N 50°58' E 001°48'2 4.3
2017-Apr-24 02:00N 50°58' E 001°51'0 0.0
2017-Apr-24 01:30N 50°58' E 001°51'2 4.6
2017-Apr-24 01:01N 50°58' E 001°47'816.5
2017-Apr-24 00:30N 50°59' E 001°34'815.9
2017-Apr-24 00:01N 51°05' E 001°25'4 8.0
2017-Apr-23 23:29N 51°07' E 001°20'0 0.0
2017-Apr-23 23:00N 51°07' E 001°20'2 3.7
2017-Apr-23 22:30N 51°07' E 001°23'816.8
2017-Apr-23 22:00N 51°03' E 001°35'816.7
2017-Apr-23 21:30N 50°58' E 001°46'4 7.2
2017-Apr-23 21:00N 50°58' E 001°51'0 0.0
2017-Apr-23 20:30N 50°58' E 001°51'5 9.3
2017-Apr-23 20:00N 50°58' E 001°44'816.2
2017-Apr-23 19:31N 51°01' E 001°32'815.9
2017-Apr-23 19:01N 51°06' E 001°22'2 3.6
2017-Apr-23 18:30N 51°07' E 001°20'0 0.0
2017-Apr-23 18:00N 51°07' E 001°20'5 9.9
2017-Apr-23 17:30N 51°06' E 001°28'918.4
2017-Apr-23 17:00N 51°01' E 001°40'815.2
2017-Apr-23 16:31N 50°58' E 001°51'0 0.3
2017-Apr-23 16:00N 50°58' E 001°51'0 0.5
2017-Apr-23 15:31N 50°58' E 001°51'714.8
2017-Apr-23 15:01N 50°59' E 001°39'1514.7
2017-Apr-23 14:00N 51°07' E 001°20'0 0.0
2017-Apr-23 13:30N 51°07' E 001°20'5 9.2
2017-Apr-23 13:01N 51°06' E 001°27'918.8
2017-Apr-23 12:30N 51°01' E 001°39'815.6
2017-Apr-23 12:01N 50°58' E 001°51'0 0.3
2017-Apr-23 11:30N 50°58' E 001°51'1 1.5
2017-Apr-23 11:00N 50°58' E 001°50'917.5
2017-Apr-23 10:30N 51°00' E 001°37'918.1
2017-Apr-23 10:00N 51°05' E 001°25'4 7.2
2017-Apr-23 09:30N 51°07' E 001°20'3 5.6
2017-Apr-23 09:01N 51°07' E 001°25'1020.8
2017-Apr-23 08:31N 51°01' E 001°38'816.7
2017-Apr-23 08:01N 50°58' E 001°51'0 0.6
2017-Apr-23 07:31N 50°58' E 001°51'0 0.0
2017-Apr-23 07:00N 50°58' E 001°51'0 0.0
2017-Apr-23 06:31N 50°58' E 001°51'0 0.0
2017-Apr-23 06:00N 50°58' E 001°51'0 0.0
2017-Apr-23 05:30N 50°58' E 001°51'0 0.0
2017-Apr-23 05:01N 50°58' E 001°51'0 0.0
2017-Apr-23 04:31N 50°58' E 001°51'0 0.0
2017-Apr-23 04:00N 50°58' E 001°51'0 0.0
2017-Apr-23 03:31N 50°58' E 001°51'0 0.0
2017-Apr-23 03:01N 50°58' E 001°51'0 0.0
2017-Apr-23 02:31N 50°58' E 001°51'0 0.0
2017-Apr-23 02:00N 50°58' E 001°51'0 0.0
2017-Apr-23 01:31N 50°58' E 001°51'2 3.0
2017-Apr-23 01:00N 50°58' E 001°49'815.9
2017-Apr-23 00:30N 50°60' E 001°36'917.3
2017-Apr-23 00:00N 51°05' E 001°26'4 8.3
2017-Apr-22 23:30N 51°07' E 001°20'0 0.0
2017-Apr-22 23:00N 51°07' E 001°20'3 5.6
2017-Apr-22 22:30N 51°07' E 001°25'918.6
2017-Apr-22 22:00N 51°02' E 001°37'816.6
2017-Apr-22 21:30N 50°58' E 001°49'2 3.1
2017-Apr-22 21:00N 50°58' E 001°51'0 0.0
2017-Apr-22 20:30N 50°58' E 001°51'4 8.1
2017-Apr-22 20:00N 50°58' E 001°45'917.5
2017-Apr-22 19:30N 51°01' E 001°32'816.5
2017-Apr-22 19:00N 51°07' E 001°22'1 2.6
2017-Apr-22 18:29N 51°07' E 001°20'0 0.0
2017-Apr-22 17:59N 51°07' E 001°20'714.8
2017-Apr-22 17:30N 51°05' E 001°31'1020.8
2017-Apr-22 17:00N 50°58' E 001°44'5 9.3
2017-Apr-22 16:30N 50°58' E 001°51'0 0.0
2017-Apr-22 16:00N 50°58' E 001°51'3 5.5
2017-Apr-22 15:30N 50°58' E 001°47'917.8
2017-Apr-22 15:00N 51°00' E 001°33'1019.5
2017-Apr-22 14:30N 51°07' E 001°22'1 1.2
2017-Apr-22 13:30N 51°07' E 001°20'714.5
2017-Apr-22 13:00N 51°04' E 001°31'1121.0
2017-Apr-22 12:30N 50°58' E 001°44'4 8.9
2017-Apr-22 12:00N 50°58' E 001°51'0 0.0
2017-Apr-22 11:31N 50°58' E 001°51'1 2.5
2017-Apr-22 11:00N 50°58' E 001°49'816.1
2017-Apr-22 10:30N 50°59' E 001°37'918.0
2017-Apr-22 10:00N 51°05' E 001°26'4 8.3
2017-Apr-22 09:30N 51°07' E 001°20'0 0.0
2017-Apr-22 08:59N 51°07' E 001°20'3 5.2
2017-Apr-22 08:30N 51°07' E 001°24'918.4
2017-Apr-22 08:00N 51°02' E 001°36'917.1
2017-Apr-22 07:30N 50°58' E 001°49'2 3.4
2017-Apr-22 07:00N 50°58' E 001°51'0 0.0
2017-Apr-22 06:31N 50°58' E 001°51'3 6.0
2017-Apr-22 06:00N 50°58' E 001°46'816.6
2017-Apr-22 05:30N 51°01' E 001°34'816.9
2017-Apr-22 05:00N 51°06' E 001°24'3 5.0
2017-Apr-22 04:30N 51°07' E 001°20'0 0.0
2017-Apr-22 04:00N 51°07' E 001°20'2 3.9
2017-Apr-22 03:30N 51°07' E 001°23'816.8
2017-Apr-22 03:01N 51°03' E 001°35'816.9
2017-Apr-22 02:31N 50°58' E 001°46'3 7.0
2017-Apr-22 02:01N 50°58' E 001°51'0 0.0
2017-Apr-22 01:31N 50°58' E 001°51'1 2.0
2017-Apr-22 01:00N 50°58' E 001°50'815.4
2017-Apr-22 00:31N 50°60' E 001°38'917.2
2017-Apr-22 00:00N 51°04' E 001°26'5 9.9
2017-Apr-21 23:30N 51°07' E 001°20'0 0.0
2017-Apr-21 23:00N 51°07' E 001°20'2 4.1
2017-Apr-21 22:31N 51°07' E 001°23'815.9
2017-Apr-21 22:01N 51°03' E 001°34'816.4
2017-Apr-21 21:31N 50°58' E 001°45'4 8.2
2017-Apr-21 21:00N 50°58' E 001°51'0 0.0
2017-Apr-21 20:30N 50°58' E 001°51'5 9.3
2017-Apr-21 20:00N 50°58' E 001°44'918.1
2017-Apr-21 19:30N 51°03' E 001°32'816.7
2017-Apr-21 19:00N 51°07' E 001°21'0 0.6
2017-Apr-21 18:30N 51°07' E 001°20'0 0.0
2017-Apr-21 17:59N 51°07' E 001°20'4 8.9
2017-Apr-21 17:30N 51°06' E 001°26'918.1
2017-Apr-21 17:00N 51°01' E 001°39'816.1
2017-Apr-21 16:31N 50°58' E 001°51'0 0.8
2017-Apr-21 16:01N 50°58' E 001°51'0 0.9
2017-Apr-21 15:30N 50°58' E 001°51'815.9
2017-Apr-21 15:00N 50°59' E 001°38'918.0
2017-Apr-21 14:30N 51°04' E 001°27'5 4.9
2017-Apr-21 13:28N 51°07' E 001°20'4 8.9
2017-Apr-21 13:00N 51°06' E 001°26'917.7
2017-Apr-21 12:30N 51°01' E 001°38'816.5
2017-Apr-21 12:01N 50°58' E 001°50'1 1.5
2017-Apr-21 11:31N 50°58' E 001°51'0 0.2
2017-Apr-21 11:01N 50°58' E 001°51'713.9
2017-Apr-21 10:30N 50°59' E 001°40'917.1
2017-Apr-21 10:00N 51°04' E 001°29'713.6
2017-Apr-21 09:30N 51°07' E 001°20'0 0.0
2017-Apr-21 09:00N 51°07' E 001°20'3 6.4
2017-Apr-21 08:30N 51°07' E 001°25'918.0
2017-Apr-21 08:00N 51°02' E 001°37'917.2
2017-Apr-21 07:30N 50°58' E 001°49'1 2.9
2017-Apr-21 07:00N 50°58' E 001°51'0 0.0
2017-Apr-21 06:30N 50°58' E 001°51'4 7.4
2017-Apr-21 06:00N 50°58' E 001°45'816.8
2017-Apr-21 05:30N 50°59' E 001°32'917.3
2017-Apr-21 05:00N 51°06' E 001°23'3 5.2
2017-Apr-21 04:30N 51°07' E 001°20'0 0.0
2017-Apr-21 04:00N 51°07' E 001°20'3 5.2
2017-Apr-21 03:30N 51°07' E 001°24'816.9
2017-Apr-21 03:00N 51°03' E 001°36'816.8
2017-Apr-21 02:30N 50°58' E 001°47'3 5.2
2017-Apr-21 02:00N 50°58' E 001°51'0 0.0
2017-Apr-21 01:30N 50°58' E 001°51'2 3.1
2017-Apr-21 01:00N 50°58' E 001°49'815.3
2017-Apr-21 00:30N 50°59' E 001°37'816.9
2017-Apr-21 00:00N 51°05' E 001°26'5 9.2
2017-Apr-20 23:30N 51°07' E 001°20'0 0.0
2017-Apr-20 23:00N 51°07' E 001°20'1 2.5
2017-Apr-20 22:30N 51°07' E 001°22'817.0
2017-Apr-20 22:00N 51°04' E 001°34'817.0
2017-Apr-20 21:30N 50°58' E 001°45'4 8.3
2017-Apr-20 21:01N 50°58' E 001°51'0 0.0
2017-Apr-20 20:31N 50°58' E 001°51'4 7.5
2017-Apr-20 20:01N 50°58' E 001°45'816.0
2017-Apr-20 19:30N 51°01' E 001°33'815.9
2017-Apr-20 19:01N 51°06' E 001°24'3 5.5
2017-Apr-20 18:30N 51°07' E 001°20'0 0.0
2017-Apr-20 18:00N 51°07' E 001°20'5 9.7
2017-Apr-20 17:31N 51°06' E 001°27'918.5
2017-Apr-20 17:01N 51°01' E 001°40'815.1
2017-Apr-20 16:30N 50°58' E 001°51'0 0.4
2017-Apr-20 16:00N 50°58' E 001°51'0 0.7
2017-Apr-20 15:30N 50°58' E 001°51'816.8
2017-Apr-20 15:00N 50°59' E 001°37'  

Dump ship's entire track history